createdAt,value
2022-12-13T00:01:17.524Z,100530.69
2022-12-13T00:06:20.077Z,100530.69
2022-12-13T00:11:22.351Z,100530.69
2022-12-13T00:16:25.849Z,100538.03
2022-12-13T00:21:30.252Z,100532.88
2022-12-13T00:26:33.228Z,100536.41
2022-12-13T00:31:58.713Z,100523.00
2022-12-13T00:37:01.473Z,100522.41
2022-12-13T00:42:03.470Z,100516.00
2022-12-13T00:47:05.454Z,100510.59
2022-12-13T00:52:07.461Z,100507.16
2022-12-13T00:57:09.482Z,100511.84
2022-12-13T01:02:11.486Z,100501.88
2022-12-13T01:07:13.392Z,100497.97
2022-12-13T01:12:15.626Z,100498.81
2022-12-13T01:17:17.698Z,100495.69
2022-12-13T01:22:19.755Z,100492.25
2022-12-13T01:27:21.837Z,100491.25
2022-12-13T01:32:23.864Z,100496.16
2022-12-13T01:37:26.202Z,100490.03
2022-12-13T01:42:28.129Z,100500.78
2022-12-13T01:47:29.987Z,100496.81
2022-12-13T01:52:34.364Z,100500.44
2022-12-13T01:57:45.451Z,100507.91
2022-12-13T02:02:49.020Z,100511.53
2022-12-13T02:07:51.550Z,100508.09
2022-12-13T02:12:55.374Z,100504.09
2022-12-13T02:18:12.703Z,100495.72
2022-12-13T02:23:33.307Z,100491.94
2022-12-13T02:28:47.130Z,100506.66
2022-12-13T02:34:08.272Z,100501.19
2022-12-13T02:39:29.716Z,100498.50
2022-12-13T02:44:42.497Z,100489.84
2022-12-13T02:49:51.075Z,100494.34
2022-12-13T02:54:56.568Z,100489.06
2022-12-13T03:00:03.900Z,100486.47
2022-12-13T03:06:03.010Z,100473.41
2022-12-13T03:11:11.188Z,100469.97
2022-12-13T03:16:22.398Z,100471.75
2022-12-13T03:21:25.357Z,100469.84
2022-12-13T03:26:27.562Z,100480.41
2022-12-13T03:31:29.383Z,100473.28
2022-12-13T03:36:31.397Z,100478.72
2022-12-13T03:41:34.072Z,100472.47
2022-12-13T03:46:36.204Z,100466.97
2022-12-13T03:51:38.058Z,100465.53
2022-12-13T03:56:40.147Z,100462.66
2022-12-13T04:01:42.119Z,100453.84
2022-12-13T04:06:43.956Z,100445.16
2022-12-13T04:12:04.670Z,100438.91
2022-12-13T04:17:06.678Z,100448.03
2022-12-13T04:22:08.739Z,100441.09
2022-12-13T04:27:10.539Z,100438.84
2022-12-13T04:32:25.938Z,100426.16
2022-12-13T04:37:30.029Z,100425.19
2022-12-13T04:42:32.032Z,100425.19
2022-12-13T04:47:33.765Z,100428.00
2022-12-13T04:52:35.711Z,100427.09
2022-12-13T04:57:37.836Z,100412.75
2022-12-13T05:02:43.933Z,100395.38
2022-12-13T05:07:46.288Z,100406.59
2022-12-13T05:12:48.093Z,100399.84
2022-12-13T05:17:50.184Z,100396.41
2022-12-13T05:22:51.930Z,100398.69
2022-12-13T05:27:57.079Z,100389.16
2022-12-13T05:32:59.017Z,100391.50
2022-12-13T05:38:01.181Z,100396.16
2022-12-13T05:43:03.217Z,100396.09
2022-12-13T05:48:05.198Z,100395.38
2022-12-13T05:53:07.341Z,100383.66
2022-12-13T05:58:13.274Z,100393.28
2022-12-13T06:03:15.729Z,100382.22
2022-12-13T06:08:24.561Z,100382.19
2022-12-13T06:13:32.445Z,100393.69
2022-12-13T06:18:35.612Z,100403.44
2022-12-13T06:23:37.453Z,100398.25
2022-12-13T06:28:39.254Z,100402.50
2022-12-13T06:33:41.151Z,100401.69
2022-12-13T06:38:43.103Z,100393.81
2022-12-13T06:43:48.177Z,100390.19
2022-12-13T06:48:50.299Z,100385.16
2022-12-13T06:53:52.173Z,100391.00
2022-12-13T06:59:01.205Z,100391.19
2022-12-13T07:04:04.408Z,100399.94
2022-12-13T07:09:06.142Z,100398.13
2022-12-13T07:14:08.976Z,100393.81
2022-12-13T07:19:22.418Z,100393.81
2022-12-13T07:24:26.152Z,100388.06
2022-12-13T07:29:28.096Z,100379.16
2022-12-13T07:34:30.800Z,100387.47
2022-12-13T07:39:32.709Z,100390.16
2022-12-13T07:44:34.391Z,100394.25
2022-12-13T07:49:36.229Z,100403.28
2022-12-13T07:54:38.385Z,100406.66
2022-12-13T07:59:40.483Z,100415.44
2022-12-13T08:04:45.363Z,100412.78
2022-12-13T08:09:56.356Z,100414.47
2022-12-13T08:14:58.356Z,100418.03
2022-12-13T08:20:00.183Z,100426.31
2022-12-13T08:25:02.753Z,100432.34
2022-12-13T08:30:04.942Z,100424.38
2022-12-13T08:35:07.301Z,100425.34
2022-12-13T08:40:10.057Z,100436.63
2022-12-13T08:45:12.196Z,100444.47
2022-12-13T08:50:14.358Z,100437.63
2022-12-13T08:55:17.407Z,100434.25
2022-12-13T09:00:21.679Z,100436.41
2022-12-13T09:05:33.210Z,100437.81
2022-12-13T09:10:38.513Z,100441.66
2022-12-13T09:15:45.807Z,100455.50
2022-12-13T09:20:48.634Z,100444.88
2022-12-13T09:26:05.546Z,100447.25
2022-12-13T09:31:15.979Z,100451.16
2022-12-13T09:36:20.387Z,100453.06
2022-12-13T09:41:28.326Z,100442.47
2022-12-13T09:46:44.396Z,100446.84
2022-12-13T09:52:10.114Z,100449.66
2022-12-13T09:57:32.505Z,100449.94
2022-12-13T10:02:51.656Z,100442.06
2022-12-13T10:07:57.815Z,100432.47
2022-12-13T10:13:18.385Z,100429.84
2022-12-13T10:18:35.197Z,100418.56
2022-12-13T10:23:59.840Z,100412.63
2022-12-13T10:29:04.377Z,100390.06
2022-12-13T10:34:06.309Z,100402.25
2022-12-13T10:39:17.540Z,100396.09
2022-12-13T10:44:25.501Z,100391.56
2022-12-13T10:49:38.408Z,100395.59
2022-12-13T10:54:48.644Z,100381.25
2022-12-13T10:59:52.061Z,100370.97
2022-12-13T11:04:54.998Z,100365.75
2022-12-13T11:10:04.897Z,100347.69
2022-12-13T11:15:15.371Z,100350.66
2022-12-13T11:20:23.886Z,100343.56
2022-12-13T11:25:40.324Z,100333.06
2022-12-13T11:31:10.770Z,100331.97
2022-12-13T11:36:28.086Z,100322.44
2022-12-13T11:41:42.595Z,100314.78
2022-12-13T11:46:50.837Z,100313.28
2022-12-13T11:52:00.161Z,100309.13
2022-12-13T11:57:08.134Z,100297.81
2022-12-13T12:02:21.865Z,100296.22
2022-12-13T12:07:48.281Z,100304.00
2022-12-13T12:13:07.849Z,100289.94
2022-12-13T12:18:15.726Z,100283.66
2022-12-13T12:23:44.353Z,100265.06
2022-12-13T12:29:29.674Z,100268.72
2022-12-13T12:34:44.849Z,100268.25
2022-12-13T12:39:55.564Z,100267.03
2022-12-13T12:45:17.559Z,100253.19
2022-12-13T12:50:48.957Z,100259.25
2022-12-13T12:56:17.821Z,100272.50
2022-12-13T13:01:37.760Z,100265.94
2022-12-13T13:07:01.786Z,100273.25
2022-12-13T13:12:30.187Z,100258.34
2022-12-13T13:17:28.393Z,100273.91
2022-12-13T13:22:42.860Z,100262.63
2022-12-13T13:27:47.929Z,100264.38
2022-12-13T13:32:52.629Z,100253.72
2022-12-13T13:37:54.885Z,100256.56
2022-12-13T13:43:06.176Z,100261.63
2022-12-13T13:48:17.481Z,100261.88
2022-12-13T13:53:46.747Z,100254.97
2022-12-13T13:59:38.297Z,100239.13
2022-12-13T14:04:52.179Z,100224.97
2022-12-13T14:10:14.111Z,100213.56
2022-12-13T14:15:53.811Z,100210.94
2022-12-13T14:21:18.461Z,100216.19
2022-12-13T14:26:29.248Z,100214.34
2022-12-13T14:31:37.518Z,100206.81
2022-12-13T14:36:39.681Z,100208.38
2022-12-13T14:41:50.094Z,100208.28
2022-12-13T14:47:08.903Z,100202.16
2022-12-13T14:52:27.226Z,100193.38
2022-12-13T14:57:32.190Z,100199.53
2022-12-13T15:02:34.316Z,100192.44
2022-12-13T15:07:41.704Z,100191.75
2022-12-13T15:12:44.979Z,100186.94
2022-12-13T15:17:46.907Z,100171.59
2022-12-13T15:22:56.222Z,100162.63
2022-12-13T15:27:58.464Z,100160.56
2022-12-13T15:33:26.344Z,100136.41
2022-12-13T15:38:33.253Z,100135.81
2022-12-13T15:43:42.807Z,100131.25
2022-12-13T15:48:48.465Z,100128.81
2022-12-13T15:54:09.315Z,100138.16
2022-12-13T15:59:32.866Z,100138.84
2022-12-13T16:04:34.804Z,100135.59
2022-12-13T16:09:38.513Z,100138.25
2022-12-13T16:14:48.969Z,100140.19
2022-12-13T16:19:53.016Z,100135.41
2022-12-13T16:24:56.769Z,100134.56
2022-12-13T16:29:58.680Z,100134.66
2022-12-13T16:35:00.535Z,100123.81
2022-12-13T16:40:37.143Z,100125.63
2022-12-13T16:45:42.862Z,100117.75
2022-12-13T16:50:46.713Z,100115.66
2022-12-13T16:55:58.131Z,100101.41
2022-12-13T17:01:02.087Z,100093.06
2022-12-13T17:06:04.501Z,100105.25
2022-12-13T17:11:07.207Z,100097.97
2022-12-13T17:16:09.193Z,100087.09
2022-12-13T17:21:11.374Z,100083.03
2022-12-13T17:26:13.218Z,100094.44
2022-12-13T17:31:15.327Z,100107.69
2022-12-13T17:36:17.438Z,100104.91
2022-12-13T17:41:19.338Z,100106.00
2022-12-13T17:46:21.238Z,100110.22
2022-12-13T17:51:23.326Z,100119.59
2022-12-13T17:56:25.189Z,100114.69
2022-12-13T18:01:27.075Z,100109.28
2022-12-13T18:06:29.247Z,100108.03
2022-12-13T18:11:33.284Z,100104.84
2022-12-13T18:16:38.756Z,100102.34
2022-12-13T18:21:43.261Z,100094.28
2022-12-13T18:26:45.208Z,100092.84
2022-12-13T18:31:47.613Z,100098.78
2022-12-13T18:36:49.599Z,100075.19
2022-12-13T18:41:51.583Z,100074.78
2022-12-13T18:46:53.432Z,100073.06
2022-12-13T18:51:55.993Z,100067.13
2022-12-13T18:56:58.092Z,100061.63
2022-12-13T19:02:00.103Z,100063.03
2022-12-13T19:07:02.066Z,100048.91
2022-12-13T19:12:04.059Z,100034.41
2022-12-13T19:17:05.886Z,100028.31
2022-12-13T19:22:07.599Z,100025.84
2022-12-13T19:27:09.490Z,100016.91
2022-12-13T19:32:11.232Z,100019.72
2022-12-13T19:37:12.981Z,100003.94
2022-12-13T19:42:15.053Z,100004.66
2022-12-13T19:47:16.889Z,100008.84
2022-12-13T19:52:18.830Z,99995.88
2022-12-13T19:57:20.984Z,99994.75
2022-12-13T20:02:22.864Z,99985.19
2022-12-13T20:07:26.881Z,99983.47
2022-12-13T20:12:31.414Z,99973.84
2022-12-13T20:17:35.523Z,99953.38
2022-12-13T20:22:37.727Z,99950.13
2022-12-13T20:27:40.252Z,99940.22
2022-12-13T20:32:42.302Z,99933.69
2022-12-13T20:37:44.173Z,99924.56
2022-12-13T20:42:50.390Z,99906.09
2022-12-13T20:47:52.239Z,99899.25
2022-12-13T20:52:54.095Z,99895.03
2022-12-13T20:57:56.187Z,99888.06
2022-12-13T21:02:57.975Z,99889.81
2022-12-13T21:08:23.023Z,99883.56
2022-12-13T21:13:25.875Z,99871.22
2022-12-13T21:18:28.438Z,99861.41
2022-12-13T21:23:31.173Z,99853.53
2022-12-13T21:28:33.199Z,99853.53
2022-12-13T21:33:37.066Z,99859.81
2022-12-13T21:38:39.302Z,99845.41
2022-12-13T21:43:41.213Z,99840.75
2022-12-13T21:48:44.090Z,99836.72
2022-12-13T21:53:46.407Z,99841.75
2022-12-13T21:59:06.827Z,99838.72
2022-12-13T22:04:08.964Z,99830.59
2022-12-13T22:09:11.331Z,99826.38
2022-12-13T22:14:13.284Z,99827.28
2022-12-13T22:19:16.370Z,99826.16
2022-12-13T22:24:18.221Z,99814.59
2022-12-13T22:29:20.306Z,99811.72
2022-12-13T22:34:22.112Z,99817.00
2022-12-13T22:39:24.125Z,99815.94
2022-12-13T22:44:26.014Z,99801.19
2022-12-13T22:49:27.951Z,99795.06
2022-12-13T22:54:29.825Z,99800.19
2022-12-13T22:59:31.808Z,99794.94
2022-12-13T23:04:33.727Z,99798.34
2022-12-13T23:09:35.525Z,99796.63
2022-12-13T23:14:37.504Z,99793.50
2022-12-13T23:19:50.489Z,99794.94
2022-12-13T23:24:53.908Z,99787.84
2022-12-13T23:29:55.658Z,99778.44
2022-12-13T23:34:57.587Z,99781.25
2022-12-13T23:39:59.362Z,99771.38
2022-12-13T23:45:01.223Z,99767.94
2022-12-13T23:50:03.045Z,99765.91
2022-12-13T23:55:05.148Z,99759.75
